Main page
METAR-TAF:

METAR-TAF

Airports :

Cross City Airport

Cross City, Florida, United States

latitude: 29-33-00N, longitude: 083-06-19W, elevation: 39 ft

Current weather observation

The report was made 18 minutes ago, at 07:15 UTC
Calm wind
Temperature 64°F
Humidity 88%
Pressure 30.14 in. Hg
Visibility: 10 miles
Clear sky

METAR: KCTY 180715Z AUTO 00000KT 10SM CLR 18/16 A3014 RMK AO2 T01790161

Time: 03:33 (07:33 UTC)


TAF: missing

Weather observations and forecasts of more than 4000 airports (METAR and TAF reports).

The available stations are represented by yellow and red dots on the map.

Hover mouse over dot to see the name of the station.

Then click to see weather observations and forecasts.

To change the map : click on the green buttons with a black cross to zoom in, on the green button with a dash to zoom out, or on the green arrows for adjacent maps.


METAR-TAF: